Time;durP1;ratioP1;P1;durP2;ratioP2;P2;SDS_P1;SDS_P2;PMS_P1;PMS_P2;Temp;Humidity;BMP_temperature;BMP_pressure;BME280_temperature;BME280_humidity;BME280_pressure;Samples;Min_cycle;Max_cycle;Signal;HPM_P1;HPM_P2
2023/08/17 00:01:55;;;;;;;3.83;2.10;;;18.90;99.90;;;;;;5013605;28;20184;-71
2023/08/17 00:04:22;;;;;;;0.80;0.80;;;19.00;99.90;;;;;;5013435;28;20187;-70
2023/08/17 00:06:48;;;;;;;1.37;1.13;;;;;;;;;;5013771;28;20171;-71
2023/08/17 00:09:13;;;;;;;2.80;2.00;;;19.00;99.90;;;;;;5013522;28;20408;-72
2023/08/17 00:11:39;;;;;;;1.97;1.87;;;18.90;99.90;;;;;;5013464;28;20515;-71
2023/08/17 00:14:05;;;;;;;0.90;0.90;;;18.70;99.90;;;;;;5013358;28;20170;-72
2023/08/17 00:16:31;;;;;;;1.40;1.30;;;18.30;99.90;;;;;;5013813;28;20189;-71
2023/08/17 00:18:57;;;;;;;0.60;0.60;;;18.60;99.90;;;;;;5013340;28;20441;-71
2023/08/17 00:21:22;;;;;;;6.93;1.50;;;18.60;99.90;;;;;;5013409;28;20437;-72
2023/08/17 00:23:49;;;;;;;3.00;1.90;;;18.80;99.90;;;;;;5013806;28;20186;-70
2023/08/17 00:26:15;;;;;;;1.50;1.40;;;;;;;;;;5013172;28;20171;-71
2023/08/17 00:28:40;;;;;;;1.37;1.27;;;18.50;99.90;;;;;;5013405;28;20606;-71
2023/08/17 00:31:06;;;;;;;1.87;1.77;;;18.80;99.90;;;;;;5013230;28;20904;-72
2023/08/17 00:33:32;;;;;;;1.57;1.47;;;19.20;99.90;;;;;;4995850;28;20175;-71
2023/08/17 00:35:58;;;;;;;3.13;2.83;;;;;;;;;;5013321;28;20251;-71
2023/08/17 00:38:24;;;;;;;3.07;2.87;;;18.80;99.90;;;;;;5013946;28;20619;-72
2023/08/17 00:40:49;;;;;;;1.73;1.63;;;19.00;99.90;;;;;;5013176;28;20490;-71
2023/08/17 00:43:15;;;;;;;2.50;1.17;;;18.80;99.90;;;;;;5013278;28;20174;-70
2023/08/17 00:45:41;;;;;;;3.30;1.33;;;18.70;99.90;;;;;;5014496;28;20184;-70
2023/08/17 00:48:08;;;;;;;1.63;1.57;;;18.50;99.90;;;;;;5017033;28;20174;-71
2023/08/17 00:50:35;;;;;;;1.80;1.70;;;18.70;99.90;;;;;;5017158;28;20797;-71
2023/08/17 00:53:01;;;;;;;1.90;1.80;;;18.70;99.90;;;;;;5016887;28;20457;-71
2023/08/17 00:55:27;;;;;;;1.30;1.20;;;18.90;99.90;;;;;;5016771;28;20406;-71
2023/08/17 00:57:53;;;;;;;3.13;2.83;;;18.80;99.90;;;;;;5017013;28;20175;-71
2023/08/17 01:00:20;;;;;;;1.80;1.70;;;18.50;99.90;;;;;;5017053;28;20434;-72
2023/08/17 01:02:46;;;;;;;1.57;1.47;;;18.70;99.90;;;;;;4999278;28;20432;-71
2023/08/17 01:05:13;;;;;;;0.83;0.83;;;;;;;;;;5016665;28;20467;-72
2023/08/17 01:07:38;;;;;;;1.67;1.40;;;18.60;99.90;;;;;;5017158;28;20409;-71
2023/08/17 01:10:05;;;;;;;1.30;0.93;;;18.60;99.90;;;;;;5016656;28;20526;-71
2023/08/17 01:12:36;;;;;;;1.77;1.67;;;18.80;99.90;;;;;;5016744;28;20636;-70
2023/08/17 01:15:04;;;;;;;0.97;0.97;;;18.60;99.90;;;;;;5016632;28;20495;-71
2023/08/17 01:17:39;;;;;;;1.50;1.40;;;18.70;99.90;;;;;;5016579;28;20417;-71
2023/08/17 01:20:09;;;;;;;1.83;1.73;;;18.30;99.90;;;;;;5016445;28;20541;-71
2023/08/17 01:22:36;;;;;;;3.70;2.07;;;18.60;99.90;;;;;;5016485;28;20418;-71
2023/08/17 01:25:03;;;;;;;2.37;1.47;;;18.70;99.90;;;;;;5016328;28;20420;-71
2023/08/17 01:27:42;;;;;;;1.70;1.17;;;18.50;99.90;;;;;;5016529;28;20406;-71
2023/08/17 01:30:09;;;;;;;5.27;2.27;;;18.50;99.90;;;;;;5016457;28;20555;-71
2023/08/17 01:32:43;;;;;;;1.83;1.73;;;18.40;99.90;;;;;;5016198;28;20461;-71
2023/08/17 01:35:48;;;;;;;2.33;2.20;;;18.40;99.90;;;;;;4998453;28;20419;-71
2023/08/17 01:38:18;;;;;;;0.93;0.93;;;18.70;99.90;;;;;;5016428;28;20936;-71
2023/08/17 01:40:47;;;;;;;2.57;1.50;;;18.80;99.90;;;;;;5016574;28;20510;-71
2023/08/17 01:43:14;;;;;;;1.33;1.23;;;18.60;99.90;;;;;;5016128;28;20429;-71
2023/08/17 01:45:40;;;;;;;1.67;1.57;;;18.60;99.90;;;;;;5015980;28;20435;-71
2023/08/17 01:48:06;;;;;;;1.50;1.40;;;18.50;99.90;;;;;;5016033;28;20415;-71
2023/08/17 01:50:31;;;;;;;1.13;1.13;;;18.40;99.90;;;;;;5016106;28;20202;-72
2023/08/17 01:52:57;;;;;;;1.90;1.80;;;18.20;99.90;;;;;;5016026;28;20917;-71
2023/08/17 01:55:23;;;;;;;1.33;1.33;;;18.40;99.90;;;;;;5015768;28;20645;-70
2023/08/17 01:57:49;;;;;;;2.90;2.70;;;18.40;99.90;;;;;;5014881;28;20625;-71
2023/08/17 02:00:15;;;;;;;2.30;2.20;;;18.40;99.90;;;;;;5015764;28;20436;-72
2023/08/17 02:02:41;;;;;;;2.17;2.07;;;18.30;99.90;;;;;;5015745;28;20413;-71
2023/08/17 02:05:07;;;;;;;1.53;1.17;;;18.30;99.90;;;;;;5015462;28;20421;-71
2023/08/17 02:07:32;;;;;;;7.60;2.60;;;18.30;99.90;;;;;;5015855;28;20261;-71
2023/08/17 02:09:58;;;;;;;1.00;1.00;;;;;;;;;;5015716;28;20474;-71
2023/08/17 02:12:25;;;;;;;1.40;1.17;;;;;;;;;;5015541;28;20284;-71
2023/08/17 02:14:50;;;;;;;1.70;1.33;;;18.40;99.90;;;;;;5015567;28;20449;-71
2023/08/17 02:17:16;;;;;;;1.50;1.40;;;18.30;99.90;;;;;;5015808;28;20815;-71
2023/08/17 02:19:47;;;;;;;2.10;1.90;;;18.50;99.90;;;;;;5015228;28;20215;-71
2023/08/17 02:22:13;;;;;;;1.93;1.83;;;;;;;;;;5015528;28;20167;-71
2023/08/17 02:24:39;;;;;;;2.27;2.13;;;18.40;99.90;;;;;;5015277;28;20418;-70
2023/08/17 02:27:04;;;;;;;1.00;1.00;;;18.40;99.90;;;;;;5015305;28;20413;-71
2023/08/17 02:29:30;;;;;;;2.50;2.30;;;18.60;99.90;;;;;;4997720;28;20193;-70
2023/08/17 02:31:56;;;;;;;1.10;1.00;;;18.30;99.90;;;;;;5015151;28;20282;-71
2023/08/17 02:34:21;;;;;;;2.30;1.90;;;18.30;99.90;;;;;;5015184;28;20175;-72
2023/08/17 02:36:47;;;;;;;5.00;4.03;;;18.30;99.90;;;;;;5015334;28;20169;-70
2023/08/17 02:39:12;;;;;;;1.27;0.87;;;18.20;99.90;;;;;;5015213;28;20171;-70
2023/08/17 02:41:39;;;;;;;4.80;1.90;;;18.30;99.90;;;;;;5014961;28;20698;-71
2023/08/17 02:44:05;;;;;;;2.20;1.33;;;;;;;;;;5014817;28;20181;-71
2023/08/17 02:46:30;;;;;;;3.30;2.20;;;18.20;99.90;;;;;;5015013;28;20415;-71
2023/08/17 02:48:56;;;;;;;1.90;1.80;;;17.80;99.90;;;;;;5015074;28;20823;-71
2023/08/17 02:51:21;;;;;;;1.30;1.20;;;18.20;99.90;;;;;;5014771;28;20670;-71
2023/08/17 02:53:47;;;;;;;3.53;2.40;;;18.10;99.90;;;;;;5014904;28;20177;-72
2023/08/17 02:56:13;;;;;;;1.27;1.13;;;18.30;99.90;;;;;;5014628;28;20251;-71
2023/08/17 02:58:42;;;;;;;1.77;1.67;;;18.30;99.90;;;;;;5014769;28;20174;-71
2023/08/17 03:01:08;;;;;;;2.40;2.20;;;18.30;99.90;;;;;;5014612;28;20195;-71
2023/08/17 03:03:34;;;;;;;1.17;1.07;;;18.40;99.90;;;;;;5014700;28;20423;-72
2023/08/17 03:06:01;;;;;;;1.47;1.20;;;18.30;99.90;;;;;;5014611;28;20907;-71
2023/08/17 03:08:26;;;;;;;1.57;1.30;;;18.30;99.90;;;;;;5014267;28;20430;-70
2023/08/17 03:10:52;;;;;;;2.60;2.30;;;18.10;99.90;;;;;;5014422;28;20514;-71
2023/08/17 03:13:18;;;;;;;3.60;2.53;;;18.10;99.90;;;;;;4996781;28;20639;-71
2023/08/17 03:15:44;;;;;;;5.80;4.00;;;;;;;;;;5014089;28;20231;-71
2023/08/17 03:18:09;;;;;;;2.37;1.87;;;18.20;99.90;;;;;;5013910;28;20259;-71
2023/08/17 03:20:35;;;;;;;3.57;2.00;;;;;;;;;;5014213;28;20542;-71
2023/08/17 03:23:01;;;;;;;2.30;2.10;;;18.10;99.90;;;;;;5014235;28;20177;-71
2023/08/17 03:25:27;;;;;;;1.83;1.73;;;18.20;99.90;;;;;;5014177;28;20782;-71
2023/08/17 03:27:52;;;;;;;5.00;2.20;;;18.00;99.90;;;;;;5014373;28;20221;-72
2023/08/17 03:30:18;;;;;;;1.27;1.17;;;17.90;99.90;;;;;;5014231;28;20215;-71
2023/08/17 03:32:44;;;;;;;3.47;2.07;;;17.60;99.90;;;;;;5014142;28;20762;-71
2023/08/17 03:35:09;;;;;;;4.13;1.60;;;17.90;99.90;;;;;;5014021;28;20567;-71
2023/08/17 03:37:35;;;;;;;1.90;1.80;;;18.20;99.90;;;;;;5014034;28;20183;-71
2023/08/17 03:40:01;;;;;;;1.10;1.10;;;;;;;;;;5014176;28;20662;-71
2023/08/17 03:42:27;;;;;;;2.07;1.50;;;18.00;99.90;;;;;;5014117;28;20173;-71
2023/08/17 03:44:53;;;;;;;1.57;1.47;;;18.00;99.90;;;;;;4996228;28;20422;-71
2023/08/17 03:47:19;;;;;;;5.27;2.60;;;18.00;99.90;;;;;;5014015;28;20473;-71
2023/08/17 03:49:46;;;;;;;2.20;1.73;;;18.20;99.90;;;;;;5013871;28;20196;-71
2023/08/17 03:52:12;;;;;;;1.80;1.20;;;18.00;99.90;;;;;;5013885;28;20520;-71
2023/08/17 03:54:37;;;;;;;1.90;1.10;;;17.80;99.90;;;;;;4996124;28;20418;-71
2023/08/17 03:57:03;;;;;;;4.83;2.00;;;17.90;99.90;;;;;;5014014;28;20221;-72
2023/08/17 03:59:29;;;;;;;2.10;2.00;;;18.10;99.90;;;;;;5013828;28;20172;-71
2023/08/17 04:01:54;;;;;;;2.43;2.23;;;17.90;99.90;;;;;;5013676;28;20180;-71
2023/08/17 04:04:20;;;;;;;1.10;1.10;;;17.90;99.90;;;;;;5013548;28;20664;-71
2023/08/17 04:06:46;;;;;;;1.43;0.80;;;;;;;;;;5013878;28;20644;-71
2023/08/17 04:09:12;;;;;;;1.13;1.10;;;17.90;99.90;;;;;;5013723;28;20189;-70
2023/08/17 04:11:38;;;;;;;2.33;2.23;;;17.90;99.90;;;;;;5013428;28;20464;-71
2023/08/17 04:14:03;;;;;;;2.63;1.83;;;17.70;99.90;;;;;;5013573;28;20937;-72
2023/08/17 04:16:29;;;;;;;2.30;2.13;;;17.80;99.90;;;;;;5013921;28;20255;-71
2023/08/17 04:18:55;;;;;;;2.27;2.17;;;17.80;99.90;;;;;;5013514;28;20430;-70
2023/08/17 04:21:21;;;;;;;2.00;1.90;;;17.80;99.90;;;;;;5018741;28;20680;-70
2023/08/17 04:23:46;;;;;;;3.43;2.70;;;17.70;99.90;;;;;;5020079;28;20168;-71
2023/08/17 04:26:12;;;;;;;3.17;2.87;;;18.00;99.90;;;;;;5019972;28;20198;-71
2023/08/17 04:28:38;;;;;;;1.93;1.83;;;17.90;99.90;;;;;;5020171;28;20182;-71
2023/08/17 04:31:04;;;;;;;3.03;2.03;;;18.00;99.90;;;;;;5020256;28;20425;-70
2023/08/17 04:33:29;;;;;;;1.90;1.80;;;18.00;99.90;;;;;;5019900;28;20290;-70
2023/08/17 04:35:55;;;;;;;1.47;1.37;;;17.90;99.90;;;;;;5019846;28;20403;-70
2023/08/17 04:38:20;;;;;;;1.13;1.00;;;17.80;99.90;;;;;;5002357;28;20237;-71
2023/08/17 04:40:46;;;;;;;3.27;2.43;;;17.80;99.90;;;;;;5019857;28;20328;-71
2023/08/17 04:43:12;;;;;;;1.60;1.27;;;;;;;;;;5019821;28;20304;-71
2023/08/17 04:45:38;;;;;;;1.10;1.10;;;;;;;;;;5001952;28;20907;-71
2023/08/17 04:48:05;;;;;;;2.50;1.17;;;17.90;99.90;;;;;;5019777;28;20492;-71
2023/08/17 04:50:32;;;;;;;1.73;1.63;;;18.20;99.90;;;;;;5019715;28;20432;-71
2023/08/17 04:52:57;;;;;;;1.27;1.17;;;17.90;99.90;;;;;;5019794;28;20462;-71
2023/08/17 04:55:23;;;;;;;1.53;1.43;;;17.90;99.90;;;;;;5019615;28;20410;-70
2023/08/17 04:57:49;;;;;;;2.87;2.43;;;;;;;;;;5019889;28;20183;-70
2023/08/17 05:00:15;;;;;;;1.27;1.17;;;17.80;99.90;;;;;;5019733;28;20267;-71
2023/08/17 05:02:41;;;;;;;1.57;1.47;;;18.00;99.90;;;;;;5019621;28;20543;-71
2023/08/17 05:05:08;;;;;;;1.67;1.60;;;;;;;;;;5019693;28;20448;-71
2023/08/17 05:07:34;;;;;;;2.60;2.10;;;18.20;99.90;;;;;;5019960;28;20400;-71
2023/08/17 05:10:00;;;;;;;2.63;1.63;;;18.20;99.90;;;;;;5019671;28;20517;-70
2023/08/17 05:12:26;;;;;;;2.53;1.80;;;18.20;99.90;;;;;;5019615;28;20575;-71
2023/08/17 05:14:52;;;;;;;1.60;1.50;;;18.70;99.90;;;;;;5019373;28;20403;-71
2023/08/17 05:17:17;;;;;;;1.10;1.10;;;18.40;99.90;;;;;;5019556;28;20250;-71
2023/08/17 05:19:43;;;;;;;1.67;1.57;;;;;;;;;;5019368;28;20204;-71
2023/08/17 05:22:11;;;;;;;2.13;1.97;;;18.50;99.90;;;;;;5019561;28;20172;-71
2023/08/17 05:24:37;;;;;;;2.57;2.37;;;;;;;;;;5019456;28;20414;-71
2023/08/17 05:27:03;;;;;;;2.03;1.93;;;18.90;99.90;;;;;;5019603;28;20544;-71
2023/08/17 05:29:29;;;;;;;2.20;1.40;;;19.10;99.90;;;;;;5019953;28;20489;-71
2023/08/17 05:31:54;;;;;;;2.20;2.00;;;19.40;99.90;;;;;;5017969;28;20733;-71
2023/08/17 05:34:20;;;;;;;2.40;2.30;;;19.60;99.90;;;;;;5016203;28;20522;-71
2023/08/17 05:36:46;;;;;;;3.10;2.90;;;19.70;99.90;;;;;;5016380;28;20255;-71
2023/08/17 05:39:11;;;;;;;6.57;2.53;;;20.10;99.90;;;;;;5016278;28;20229;-71
2023/08/17 05:41:37;;;;;;;1.33;1.30;;;19.80;99.90;;;;;;5016159;28;20200;-70
2023/08/17 05:44:03;;;;;;;1.80;1.70;;;20.00;99.90;;;;;;5016189;28;20180;-70
2023/08/17 05:46:29;;;;;;;2.70;2.50;;;20.70;99.90;;;;;;5016525;28;20177;-72
2023/08/17 05:48:54;;;;;;;2.20;2.10;;;20.90;99.90;;;;;;5016267;28;20770;-71
2023/08/17 05:51:20;;;;;;;1.57;1.47;;;21.20;99.90;;;;;;5015907;28;20558;-71
2023/08/17 05:53:45;;;;;;;2.70;2.50;;;21.30;99.90;;;;;;5016203;28;20201;-72
2023/08/17 05:56:11;;;;;;;1.57;1.50;;;21.40;99.90;;;;;;5015746;28;20220;-72
2023/08/17 05:58:37;;;;;;;1.70;1.60;;;21.40;99.90;;;;;;4998278;28;20198;-72
2023/08/17 06:01:07;;;;;;;1.73;1.63;;;21.30;99.90;;;;;;5015860;28;20633;-71
2023/08/17 06:03:33;;;;;;;1.47;1.37;;;21.20;99.90;;;;;;5015828;28;20201;-71
2023/08/17 06:05:59;;;;;;;1.20;1.10;;;21.20;99.90;;;;;;5015729;28;20487;-71
2023/08/17 06:08:24;;;;;;;2.30;1.50;;;21.10;99.90;;;;;;5015958;28;20619;-71
2023/08/17 06:10:50;;;;;;;36.67;4.33;;;;;;;;;;5015710;28;20274;-71
2023/08/17 06:13:16;;;;;;;1.10;0.90;;;20.50;99.90;;;;;;5015500;28;20210;-72
2023/08/17 06:15:42;;;;;;;1.70;1.60;;;;;;;;;;5015373;28;20536;-70
2023/08/17 06:18:08;;;;;;;1.20;1.17;;;20.60;99.90;;;;;;5015551;28;20177;-71
2023/08/17 06:20:33;;;;;;;1.20;1.10;;;20.60;99.90;;;;;;5015390;28;20449;-70
2023/08/17 06:22:59;;;;;;;1.23;1.23;;;20.50;99.90;;;;;;5015448;28;20183;-71
2023/08/17 06:25:25;;;;;;;3.50;2.13;;;20.80;99.90;;;;;;5015255;28;20177;-71
2023/08/17 06:27:51;;;;;;;2.63;2.40;;;21.00;99.90;;;;;;5015291;28;20189;-72
2023/08/17 06:30:17;;;;;;;1.67;1.60;;;21.30;99.90;;;;;;5015297;28;20830;-71
2023/08/17 06:32:43;;;;;;;1.63;1.53;;;21.40;99.90;;;;;;5015255;28;20468;-71
2023/08/17 06:35:09;;;;;;;2.30;2.00;;;21.50;99.90;;;;;;5015076;28;20257;-71
2023/08/17 06:37:35;;;;;;;1.60;1.17;;;21.80;99.90;;;;;;5015321;28;20177;-72
2023/08/17 06:40:01;;;;;;;1.60;1.50;;;22.50;99.90;;;;;;5015205;28;20559;-72
2023/08/17 06:42:26;;;;;;;2.30;2.10;;;22.60;99.90;;;;;;5015033;28;20414;-71
2023/08/17 06:44:52;;;;;;;1.63;1.53;;;23.00;99.90;;;;;;5014432;28;20894;-72
2023/08/17 06:47:17;;;;;;;1.90;1.53;;;23.30;99.90;;;;;;5015054;28;20186;-72
2023/08/17 06:49:43;;;;;;;1.23;1.20;;;;;;;;;;5014939;28;20195;-71
2023/08/17 06:52:09;;;;;;;1.60;1.50;;;23.90;99.10;;;;;;5014789;28;20203;-72
2023/08/17 06:54:35;;;;;;;2.00;1.90;;;24.00;99.10;;;;;;5014828;28;20764;-72
2023/08/17 06:57:01;;;;;;;1.17;1.03;;;24.20;99.40;;;;;;5014784;28;20171;-72
2023/08/17 06:59:26;;;;;;;1.43;1.33;;;24.40;99.90;;;;;;5014428;28;20421;-71
2023/08/17 07:01:52;;;;;;;1.93;1.50;;;24.40;98.60;;;;;;5014800;28;20183;-72
2023/08/17 07:04:18;;;;;;;1.80;1.70;;;24.50;98.50;;;;;;5014608;28;20655;-71
2023/08/17 07:06:43;;;;;;;1.67;1.57;;;24.70;98.40;;;;;;4997206;28;20197;-71
2023/08/17 07:09:12;;;;;;;2.20;1.47;;;;;;;;;;5014567;28;20575;-71
2023/08/17 07:11:38;;;;;;;1.47;1.33;;;25.20;97.10;;;;;;5014430;28;20202;-71
2023/08/17 07:14:04;;;;;;;1.60;1.50;;;25.10;97.20;;;;;;5014357;28;20378;-72
2023/08/17 07:16:31;;;;;;;2.43;2.00;;;26.30;97.40;;;;;;5014374;28;20385;-71
2023/08/17 07:18:57;;;;;;;1.17;1.07;;;25.80;96.50;;;;;;5014346;28;20460;-73
2023/08/17 07:21:22;;;;;;;1.33;1.13;;;25.80;96.00;;;;;;5014395;28;20231;-72
2023/08/17 07:23:49;;;;;;;1.83;1.73;;;25.90;95.80;;;;;;5014452;28;20259;-71
2023/08/17 07:26:14;;;;;;;2.10;2.00;;;26.20;95.40;;;;;;5013991;28;20179;-72
2023/08/17 07:28:40;;;;;;;1.77;1.63;;;26.70;95.40;;;;;;5014259;28;20469;-72
2023/08/17 07:31:06;;;;;;;1.33;1.23;;;27.40;94.90;;;;;;4996498;28;20659;-72
2023/08/17 07:33:31;;;;;;;1.23;1.13;;;28.20;93.70;;;;;;5014303;28;20210;-72
2023/08/17 07:35:58;;;;;;;2.30;1.60;;;28.80;92.10;;;;;;4996515;28;20168;-73
2023/08/17 07:38:23;;;;;;;4.73;1.67;;;29.40;91.40;;;;;;5014138;28;20176;-73
2023/08/17 07:40:49;;;;;;;2.27;1.80;;;30.00;90.20;;;;;;5013752;28;20509;-72
2023/08/17 07:43:15;;;;;;;1.50;1.40;;;30.40;88.80;;;;;;5014047;28;20747;-72
2023/08/17 07:45:40;;;;;;;1.60;1.50;;;31.00;87.20;;;;;;5013909;28;20547;-73
2023/08/17 07:48:06;;;;;;;1.50;1.40;;;31.70;84.40;;;;;;5013960;28;20176;-72
2023/08/17 07:50:32;;;;;;;1.63;1.53;;;;;;;;;;5013816;28;20195;-73
2023/08/17 07:52:58;;;;;;;1.90;1.80;;;;;;;;;;5013678;28;20199;-72
2023/08/17 07:55:26;;;;;;;1.20;1.10;;;33.60;72.10;;;;;;5012873;28;20821;-72
2023/08/17 07:57:52;;;;;;;1.63;1.53;;;;;;;;;;5013848;28;20917;-72
2023/08/17 08:00:18;;;;;;;1.27;1.17;;;34.40;68.20;;;;;;5013873;28;20465;-73
2023/08/17 08:02:44;;;;;;;1.33;1.23;;;34.80;66.30;;;;;;5013936;28;20497;-73
2023/08/17 08:05:09;;;;;;;1.77;1.67;;;35.10;64.80;;;;;;5013589;28;20198;-73
2023/08/17 08:07:35;;;;;;;1.67;1.23;;;35.40;63.70;;;;;;5014267;28;20258;-72
2023/08/17 08:10:01;;;;;;;1.27;1.17;;;36.10;62.10;;;;;;5013545;28;20614;-72
2023/08/17 08:12:26;;;;;;;1.30;1.20;;;36.90;58.40;;;;;;5013598;28;20663;-73
2023/08/17 08:14:52;;;;;;;1.50;1.40;;;37.60;57.20;;;;;;5013561;28;20180;-73
2023/08/17 08:17:19;;;;;;;1.23;1.13;;;38.00;55.00;;;;;;5013707;28;20262;-72
2023/08/17 08:19:45;;;;;;;2.03;1.83;;;38.30;53.90;;;;;;5013396;28;20203;-73
2023/08/17 08:22:11;;;;;;;1.60;1.50;;;38.20;53.30;;;;;;5013487;28;20501;-73
2023/08/17 08:24:36;;;;;;;4.63;1.73;;;38.00;52.70;;;;;;5013319;28;20176;-73
2023/08/17 08:27:02;;;;;;;1.40;1.30;;;;;;;;;;5013545;28;20202;-72
2023/08/17 08:29:28;;;;;;;1.50;1.40;;;;;;;;;;5013577;28;20179;-73
2023/08/17 08:31:54;;;;;;;1.57;1.27;;;38.20;50.50;;;;;;5013407;28;20503;-73
2023/08/17 08:34:20;;;;;;;1.10;1.10;;;38.90;51.20;;;;;;5013360;28;20411;-73
2023/08/17 08:36:47;;;;;;;1.37;1.27;;;;;;;;;;5013446;28;20175;-73
2023/08/17 08:39:13;;;;;;;1.90;1.80;;;39.40;47.20;;;;;;5013560;28;20755;-72
2023/08/17 08:41:39;;;;;;;1.20;1.10;;;;;;;;;;5013280;28;20415;-72
2023/08/17 08:44:05;;;;;;;1.47;1.37;;;39.80;48.30;;;;;;5013218;28;20398;-73
2023/08/17 08:46:33;;;;;;;1.70;1.60;;;40.40;45.90;;;;;;5013415;28;20989;-72
2023/08/17 08:48:59;;;;;;;1.60;1.50;;;40.20;45.70;;;;;;5013212;28;20178;-73
2023/08/17 08:51:28;;;;;;;1.70;1.27;;;40.40;46.70;;;;;;5013012;28;20417;-73
2023/08/17 08:54:05;;;;;;;2.87;1.50;;;40.20;45.50;;;;;;5013102;28;20164;-73
2023/08/17 08:56:37;;;;;;;1.93;1.83;;;39.90;46.90;;;;;;5013564;28;20485;-73
2023/08/17 08:59:04;;;;;;;1.53;1.43;;;39.40;47.30;;;;;;5013189;28;20493;-73
2023/08/17 09:01:33;;;;;;;2.27;1.33;;;38.90;47.70;;;;;;5013050;28;20589;-72
2023/08/17 09:04:02;;;;;;;1.73;1.63;;;39.00;46.40;;;;;;5013076;28;20414;-72
2023/08/17 09:06:30;;;;;;;1.77;1.67;;;38.80;46.80;;;;;;5014262;28;20410;-73
2023/08/17 09:08:58;;;;;;;1.93;1.53;;;38.80;47.30;;;;;;5016828;28;20768;-73
2023/08/17 09:11:24;;;;;;;1.50;1.40;;;38.70;48.00;;;;;;5016712;28;20938;-73
2023/08/17 09:13:50;;;;;;;2.23;1.70;;;38.40;48.80;;;;;;5016829;28;20413;-73
2023/08/17 09:16:15;;;;;;;1.67;1.57;;;38.40;49.00;;;;;;5016630;28;20178;-73
2023/08/17 09:18:42;;;;;;;1.40;1.30;;;39.20;46.90;;;;;;5016564;28;20523;-72
2023/08/17 09:21:07;;;;;;;1.17;1.13;;;39.30;44.60;;;;;;5016549;28;20195;-73
2023/08/17 09:23:33;;;;;;;1.90;1.43;;;38.50;43.90;;;;;;5016778;28;20910;-73
2023/08/17 09:26:08;;;;;;;2.03;1.40;;;37.40;45.60;;;;;;5016446;28;20584;-73
2023/08/17 09:28:38;;;;;;;1.20;1.10;;;36.30;47.10;;;;;;4999524;28;20556;-73
2023/08/17 09:31:04;;;;;;;1.90;1.23;;;35.50;47.60;;;;;;5016728;28;20914;-72
2023/08/17 09:33:30;;;;;;;1.10;0.93;;;35.30;49.50;;;;;;5016581;28;20464;-73
2023/08/17 09:35:57;;;;;;;1.60;1.50;;;35.60;48.00;;;;;;5016281;28;20573;-72
2023/08/17 09:38:24;;;;;;;2.00;1.47;;;36.40;45.90;;;;;;5016392;28;20453;-72
2023/08/17 09:40:50;;;;;;;1.60;1.27;;;37.50;44.70;;;;;;5016315;28;20438;-73
2023/08/17 09:43:17;;;;;;;1.20;1.10;;;37.90;43.90;;;;;;5016307;28;20455;-72
2023/08/17 09:45:48;;;;;;;1.37;1.20;;;38.40;44.30;;;;;;5016048;28;20402;-73
2023/08/17 09:48:17;;;;;;;1.20;1.10;;;38.60;42.90;;;;;;5016101;28;20414;-73
2023/08/17 09:50:44;;;;;;;1.30;1.20;;;39.30;42.50;;;;;;5015994;28;20470;-73
2023/08/17 09:53:17;;;;;;;1.60;1.50;;;39.60;41.20;;;;;;5015863;28;20524;-73
2023/08/17 09:55:46;;;;;;;1.83;1.30;;;39.60;41.60;;;;;;5015850;28;20406;-73
2023/08/17 09:58:15;;;;;;;1.77;1.67;;;39.60;40.40;;;;;;5016118;28;20407;-73
2023/08/17 10:00:50;;;;;;;4.73;1.07;;;39.80;40.50;;;;;;5015908;28;20779;-74
2023/08/17 10:03:17;;;;;;;1.40;1.17;;;39.90;41.90;;;;;;5016233;28;20497;-74
2023/08/17 10:05:47;;;;;;;1.83;1.00;;;39.80;39.30;;;;;;5015869;28;20414;-73
2023/08/17 10:08:17;;;;;;;1.20;1.10;;;39.70;39.70;;;;;;5015997;28;20406;-73
2023/08/17 10:10:45;;;;;;;1.10;1.10;;;39.60;41.40;;;;;;5015955;28;20859;-73
2023/08/17 10:13:13;;;;;;;1.30;1.20;;;39.50;41.40;;;;;;5015559;28;20450;-73
2023/08/17 10:15:53;;;;;;;1.00;0.90;;;39.40;40.80;;;;;;5015587;28;20457;-73
2023/08/17 10:18:49;;;;;;;1.57;1.30;;;39.30;42.00;;;;;;5014780;28;20458;-72
2023/08/17 10:21:38;;;;;;;1.83;1.40;;;38.60;42.60;;;;;;5015574;28;20430;-73
2023/08/17 10:24:05;;;;;;;2.90;1.70;;;38.20;42.50;;;;;;5015295;28;20402;-73
2023/08/17 10:26:33;;;;;;;1.83;1.70;;;37.80;43.50;;;;;;5015461;28;20917;-72
2023/08/17 10:29:01;;;;;;;1.17;1.07;;;37.10;44.20;;;;;;5015408;28;20899;-72
2023/08/17 10:31:28;;;;;;;1.70;1.60;;;36.20;43.30;;;;;;5015110;28;20457;-72
2023/08/17 10:33:54;;;;;;;4.37;1.20;;;35.30;45.80;;;;;;5015056;28;20403;-71
2023/08/17 10:36:20;;;;;;;1.60;1.50;;;34.00;45.40;;;;;;5015282;28;20394;-72
2023/08/17 10:38:46;;;;;;;1.30;1.20;;;33.10;49.90;;;;;;5015267;28;20802;-72
2023/08/17 10:41:13;;;;;;;1.40;1.30;;;33.50;46.10;;;;;;5015002;28;20423;-72
2023/08/17 10:43:57;;;;;;;1.00;1.00;;;33.50;46.70;;;;;;5015219;28;20628;-73
2023/08/17 10:46:33;;;;;;;1.17;1.07;;;33.00;45.90;;;;;;5015238;28;20417;-72
2023/08/17 10:49:05;;;;;;;1.10;1.00;;;33.00;46.70;;;;;;5015065;28;20401;-72
2023/08/17 10:51:31;;;;;;;1.60;1.10;;;33.20;45.70;;;;;;5014771;28;20969;-72
2023/08/17 10:54:00;;;;;;;1.80;1.70;;;33.50;45.70;;;;;;4997244;28;20409;-73
2023/08/17 10:56:29;;;;;;;1.87;1.73;;;34.00;47.20;;;;;;5014998;28;20402;-72
2023/08/17 10:59:00;;;;;;;1.53;1.43;;;34.50;47.70;;;;;;5014808;28;20401;-72
2023/08/17 11:01:38;;;;;;;1.07;1.00;;;34.20;46.40;;;;;;5014848;28;20422;-73
2023/08/17 11:04:17;;;;;;;1.47;1.37;;;33.90;46.20;;;;;;5014667;28;20493;-72
2023/08/17 11:06:45;;;;;;;1.27;1.17;;;33.10;48.80;;;;;;5014784;28;20398;-73
2023/08/17 11:09:12;;;;;;;2.90;1.60;;;32.60;48.60;;;;;;5014558;28;20905;-73
2023/08/17 11:11:38;;;;;;;1.27;1.17;;;32.20;49.70;;;;;;5014534;28;20426;-72
2023/08/17 11:14:04;;;;;;;1.37;1.30;;;31.80;51.10;;;;;;5014543;28;20888;-72
2023/08/17 11:16:30;;;;;;;2.30;1.30;;;;;;;;;;5014650;28;20522;-73
2023/08/17 11:18:58;;;;;;;3.90;3.60;;;;;;;;;;5014469;28;20434;-72
2023/08/17 11:21:24;;;;;;;1.80;1.27;;;31.50;51.10;;;;;;5014308;28;20419;-72
2023/08/17 11:23:50;;;;;;;1.10;1.00;;;;;;;;;;5014381;28;20945;-72
2023/08/17 11:26:17;;;;;;;1.83;1.73;;;31.20;53.90;;;;;;5014279;28;20639;-72
2023/08/17 11:28:44;;;;;;;1.17;1.07;;;;;;;;;;5014405;28;20402;-73
2023/08/17 11:31:12;;;;;;;1.33;1.23;;;31.20;50.30;;;;;;5014091;28;20422;-72
2023/08/17 11:33:39;;;;;;;1.30;1.17;;;30.70;53.20;;;;;;5014301;28;20446;-72
2023/08/17 11:36:06;;;;;;;3.97;1.20;;;30.70;53.70;;;;;;5013956;28;20422;-71
2023/08/17 11:38:40;;;;;;;1.57;1.47;;;30.80;50.80;;;;;;5014166;28;20430;-72
2023/08/17 11:41:08;;;;;;;1.43;0.80;;;31.00;47.10;;;;;;4996488;28;20434;-73
2023/08/17 11:43:35;;;;;;;1.33;1.23;;;31.20;47.90;;;;;;5014217;28;20413;-73
2023/08/17 11:46:01;;;;;;;1.80;1.23;;;31.10;47.60;;;;;;5014016;28;20441;-73
2023/08/17 11:48:27;;;;;;;1.13;1.10;;;30.90;48.70;;;;;;5014032;28;20773;-72
2023/08/17 11:50:54;;;;;;;1.17;1.00;;;30.90;49.60;;;;;;4996230;28;20789;-72
2023/08/17 11:53:20;;;;;;;1.37;1.30;;;31.00;48.90;;;;;;5013827;28;20450;-73
2023/08/17 11:55:46;;;;;;;1.10;1.00;;;30.90;46.40;;;;;;5013710;28;20465;-72
2023/08/17 11:58:12;;;;;;;1.30;1.20;;;;;;;;;;5013954;28;20768;-72
2023/08/17 12:00:44;;;;;;;1.10;1.00;;;30.70;47.00;;;;;;5013785;28;20194;-72
2023/08/17 12:03:13;;;;;;;1.60;0.83;;;30.60;47.70;;;;;;5014132;28;20410;-73
2023/08/17 12:05:39;;;;;;;1.23;1.13;;;;;;;;;;5013710;28;20886;-72
2023/08/17 12:08:07;;;;;;;1.30;1.20;;;30.10;48.80;;;;;;5013725;28;20413;-72
2023/08/17 12:10:33;;;;;;;1.67;1.03;;;30.00;48.60;;;;;;5013655;28;20809;-72
2023/08/17 12:13:00;;;;;;;2.83;1.00;;;29.70;45.70;;;;;;5013800;28;20473;-72
2023/08/17 12:15:33;;;;;;;0.97;0.90;;;29.50;47.60;;;;;;5013362;28;20441;-73
2023/08/17 12:18:02;;;;;;;0.97;0.87;;;29.00;48.10;;;;;;5013570;28;20399;-73
2023/08/17 12:20:29;;;;;;;1.73;1.17;;;28.80;47.30;;;;;;5013404;28;20537;-73
2023/08/17 12:22:57;;;;;;;1.27;1.10;;;28.80;48.80;;;;;;5013660;28;20906;-72
2023/08/17 12:25:23;;;;;;;1.27;1.03;;;28.90;47.70;;;;;;5013278;28;20847;-71
2023/08/17 12:27:50;;;;;;;1.00;1.00;;;;;;;;;;5013593;28;20407;-73
2023/08/17 12:30:36;;;;;;;1.20;1.10;;;29.10;48.30;;;;;;5013507;28;20925;-73
2023/08/17 12:33:02;;;;;;;2.00;0.90;;;;;;;;;;5013457;28;20449;-73
2023/08/17 12:35:28;;;;;;;1.00;0.83;;;29.30;48.60;;;;;;5013337;28;20395;-72
2023/08/17 12:37:54;;;;;;;1.00;0.90;;;;;;;;;;5013510;28;20398;-72
2023/08/17 12:40:21;;;;;;;1.40;1.30;;;29.40;48.60;;;;;;5013414;28;20702;-72
2023/08/17 12:42:47;;;;;;;0.57;0.57;;;29.40;48.90;;;;;;5016486;28;20414;-72
2023/08/17 12:45:13;;;;;;;3.13;0.93;;;29.40;48.00;;;;;;4999528;28;20841;-72
2023/08/17 12:47:39;;;;;;;0.87;0.87;;;;;;;;;;5017324;28;20407;-73
2023/08/17 12:50:05;;;;;;;1.67;0.80;;;29.10;45.90;;;;;;5017192;28;20430;-72
2023/08/17 12:52:32;;;;;;;1.13;0.93;;;;;;;;;;5017140;28;20454;-71
2023/08/17 12:54:58;;;;;;;1.43;1.27;;;29.20;47.70;;;;;;5016872;28;20407;-72
2023/08/17 12:57:23;;;;;;;0.60;0.60;;;29.40;48.40;;;;;;4999421;28;20775;-73
2023/08/17 12:59:49;;;;;;;0.93;0.70;;;;;;;;;;5017154;28;20187;-72